Huvudsida
METAR-TAF:

METAR-TAF

Flygplatser :

Taubaté, São Paulo, Brasilien

latitud: 23-02-26S, longitud: 45-31-00W, höjd: 577 m

Aktuellt väderrapport

Denna rapport gjordes för 1 timme och 9 minuter sedan, klockan 22:00 UTC
Vind 4 kt från ost/nordost
Temperatur 23°C
Fuktighet 89%
Tryck 1012 hPa
Sikt: 8000 m
Brutna moln på en höjd av 3000 ft
Få moln på en höjd av 3500 ft, Högtornande cumulus.
Brutna moln på en höjd av 10000 ft
skurar i närheten

METAR: SBTA 192200Z 07004KT 8000 VCSH BKN030 FEW035TCU BKN100 23/21 Q1012 RETS

Tid: 20:09 (23:09 UTC)


TAF: saknas

Aktuella väderrapporter och prognoser från 4000 flygplatser (METAR- och TAF-rapporter).

De tillgängliga stationerna syns som gula och röda prickar på kartan.

För musen över prickarna för att se namnen på stationerna.

Klicka sedan för att få väderrapporter och prognoser.

För att ändra kartan: Klicka på de gröna knapparna med ett svart kors på för att zooma in; den gröna knappen med ett streck på för att zooma ut; eller på de gröna pilarna för angränsande kartor.


METAR-TAF: